Spirit Of Vi — CFL2070 — position and weather

sailwx.info

Track history (hours):
 
Tides and Currents Weather Stations Pressure Air Temp Water Temp Dewpoint Dewpoint Depression Visibility Wind Speed Wind Dir Waves Ship Positions

Spirit Of Vi

Last reported at 2017-Jun-23 18:30 UTC. Time now 2017-Jun-23 18:50 UTC.
Position N 48°47' W 123°21'.

Length 168 m; draft 5 m.

Type: Ship. MMSI: 316001269.

Date/timePositionNaut miles runAvg speedWind from/ knotsBaromVisibWave heightAir tempDewpointWater temp
2017-Jun-23 18:30N 48°47' W 123°21'611.1
2017-Jun-23 18:00N 48°41' W 123°25'0 0.1
2017-Jun-23 17:30N 48°41' W 123°25'816.1
2017-Jun-23 17:00N 48°49' W 123°21'815.0
2017-Jun-23 16:30N 48°56' W 123°15'713.2
2017-Jun-23 16:00N 49°00' W 123°08'0 0.1
2017-Jun-23 15:30N 49°00' W 123°08'917.3
2017-Jun-23 15:00N 48°54' W 123°17'1313.4
2017-Jun-23 14:01N 48°41' W 123°25'0 0.0
2017-Jun-23 13:30N 48°41' W 123°25'0 0.0
2017-Jun-23 13:01N 48°41' W 123°25'0 0.0
2017-Jun-23 12:31N 48°41' W 123°25'0 0.0
2017-Jun-23 11:58N 48°41' W 123°25'0 0.0
2017-Jun-23 11:28N 48°41' W 123°25'0 0.0
2017-Jun-23 10:58N 48°41' W 123°25'0 0.0
2017-Jun-23 10:28N 48°41' W 123°25'0 0.0
2017-Jun-23 09:58N 48°41' W 123°25'0 0.0
2017-Jun-23 09:28N 48°41' W 123°25'0 0.0
2017-Jun-23 08:58N 48°41' W 123°25'0 0.0
2017-Jun-23 08:28N 48°41' W 123°25'0 0.0
2017-Jun-23 07:55N 48°41' W 123°25'0 0.0
2017-Jun-23 07:28N 48°41' W 123°25'0 0.0
2017-Jun-23 06:58N 48°41' W 123°25'0 0.0
2017-Jun-23 06:28N 48°41' W 123°25'0 0.0
2017-Jun-23 05:58N 48°41' W 123°25'0 0.0
2017-Jun-23 05:27N 48°41' W 123°25'715.0
2017-Jun-23 05:00N 48°48' W 123°21'816.2
2017-Jun-23 04:30N 48°55' W 123°16'714.7
2017-Jun-23 04:00N 49°00' W 123°08'0 0.0
2017-Jun-23 03:30N 49°00' W 123°08'816.5
2017-Jun-23 02:59N 48°54' W 123°16'613.1
2017-Jun-23 02:30N 48°48' W 123°21'714.4
2017-Jun-23 02:00N 48°42' W 123°25'0 0.3
2017-Jun-23 01:30N 48°41' W 123°25'714.1
2017-Jun-23 01:00N 48°48' W 123°21'816.2
2017-Jun-23 00:30N 48°56' W 123°15'714.2
2017-Jun-23 00:00N 49°00' W 123°08'0 0.0
2017-Jun-22 23:30N 49°00' W 123°08'816.4
2017-Jun-22 23:00N 48°54' W 123°16'816.0
2017-Jun-22 22:30N 48°47' W 123°21'612.0
2017-Jun-22 22:00N 48°41' W 123°25'1 1.1
2017-Jun-22 21:31N 48°42' W 123°24'816.4
2017-Jun-22 21:00N 48°49' W 123°20'612.5
2017-Jun-22 20:30N 48°55' W 123°16'814.9
2017-Jun-22 20:00N 49°00' W 123°08'0 0.1
2017-Jun-22 19:30N 49°00' W 123°08'816.7
2017-Jun-22 19:00N 48°54' W 123°16'815.9
2017-Jun-22 18:30N 48°47' W 123°21'611.8
2017-Jun-22 18:01N 48°41' W 123°25'0 0.7
2017-Jun-22 17:31N 48°42' W 123°24'917.0
2017-Jun-22 17:00N 48°50' W 123°21'916.7
2017-Jun-22 16:30N 48°57' W 123°13'510.1
2017-Jun-22 16:00N 49°00' W 123°08'0 0.2
2017-Jun-22 15:30N 49°00' W 123°08'917.0
2017-Jun-22 15:00N 48°54' W 123°17'613.3
2017-Jun-22 14:30N 48°48' W 123°21'7 6.8
2017-Jun-22 13:30N 48°41' W 123°25'0 0.0
2017-Jun-22 13:00N 48°41' W 123°25'0 0.0
2017-Jun-22 12:30N 48°41' W 123°25'0 0.0
2017-Jun-22 11:58N 48°41' W 123°25'0 0.0
2017-Jun-22 11:28N 48°41' W 123°25'0 0.0
2017-Jun-22 10:58N 48°41' W 123°25'0 0.0
2017-Jun-22 10:28N 48°41' W 123°25'0 0.0
2017-Jun-22 09:58N 48°41' W 123°25'0 0.0
2017-Jun-22 09:28N 48°41' W 123°25'0 0.0
2017-Jun-22 08:58N 48°41' W 123°25'0 0.0
2017-Jun-22 08:28N 48°41' W 123°25'0 0.0
2017-Jun-22 07:58N 48°41' W 123°25'0 0.0
2017-Jun-22 07:28N 48°41' W 123°25'0 0.0
2017-Jun-22 06:58N 48°41' W 123°25'0 0.0
2017-Jun-22 06:28N 48°41' W 123°25'0 0.0
2017-Jun-22 05:58N 48°41' W 123°25'0 0.0
2017-Jun-22 05:30N 48°41' W 123°25'714.7
2017-Jun-22 05:00N 48°48' W 123°20'714.8
2017-Jun-22 04:31N 48°55' W 123°16'814.8
2017-Jun-22 04:00N 49°00' W 123°08'0 0.5
2017-Jun-22 03:30N 49°00' W 123°08'918.0
2017-Jun-22 03:00N 48°53' W 123°17'713.6
2017-Jun-22 02:30N 48°47' W 123°21'612.3
2017-Jun-22 02:00N 48°41' W 123°25'0 0.6
2017-Jun-22 01:31N 48°42' W 123°24'917.5
2017-Jun-22 01:00N 48°50' W 123°21'714.2
2017-Jun-22 00:30N 48°56' W 123°15'612.7
2017-Jun-22 00:00N 49°00' W 123°08'0 0.6
2017-Jun-21 23:30N 49°00' W 123°08'918.7
2017-Jun-21 23:00N 48°53' W 123°17'815.6
2017-Jun-21 22:31N 48°46' W 123°22'5 9.8
2017-Jun-21 22:01N 48°41' W 123°25'1 2.6
2017-Jun-21 21:31N 48°42' W 123°23'917.4
2017-Jun-21 21:00N 48°50' W 123°21'815.5
2017-Jun-21 20:31N 48°56' W 123°14'611.0
2017-Jun-21 20:00N 49°00' W 123°08'0 0.6
2017-Jun-21 19:31N 49°00' W 123°08'918.2
2017-Jun-21 19:00N 48°53' W 123°17'714.2
2017-Jun-21 18:30N 48°46' W 123°20'611.5
2017-Jun-21 18:00N 48°41' W 123°25'0 0.2
2017-Jun-21 17:30N 48°41' W 123°25'816.2
2017-Jun-21 17:00N 48°49' W 123°21'816.0
2017-Jun-21 16:30N 48°56' W 123°14'612.0
2017-Jun-21 16:00N 49°00' W 123°08'0 0.0
2017-Jun-21 15:30N 49°00' W 123°08'815.9
2017-Jun-21 15:01N 48°54' W 123°16'713.9
2017-Jun-21 14:30N 48°48' W 123°21'7 7.2
2017-Jun-21 13:31N 48°41' W 123°25'0 0.0
2017-Jun-21 13:00N 48°41' W 123°25'0 0.0
2017-Jun-21 12:30N 48°41' W 123°25'0 0.0
2017-Jun-21 12:01N 48°41' W 123°25'0 0.0
2017-Jun-21 11:30N 48°41' W 123°25'0 0.0
2017-Jun-21 11:00N 48°41' W 123°25'0 0.0
2017-Jun-21 10:30N 48°41' W 123°25'0 0.0
2017-Jun-21 10:00N 48°41' W 123°25'0 0.0
2017-Jun-21 09:30N 48°41' W 123°25'0 0.0
2017-Jun-21 09:00N 48°41' W 123°25'0 0.0
2017-Jun-21 08:30N 48°41' W 123°25'0 0.0
2017-Jun-21 08:00N 48°41' W 123°25'0 0.0
2017-Jun-21 07:30N 48°41' W 123°25'0 0.0
2017-Jun-21 07:00N 48°41' W 123°25'0 0.0
2017-Jun-21 06:30N 48°41' W 123°25'0 0.0
2017-Jun-21 06:00N 48°41' W 123°25'0 0.0
2017-Jun-21 05:30N 48°41' W 123°25'714.0
2017-Jun-21 05:01N 48°48' W 123°21'815.5
2017-Jun-21 04:30N 48°55' W 123°16'714.7
2017-Jun-21 04:00N 49°00' W 123°08'0 0.0
2017-Jun-21 03:30N 49°00' W 123°08'816.8
2017-Jun-21 03:00N 48°54' W 123°16'714.5
2017-Jun-21 02:30N 48°47' W 123°21'612.9
2017-Jun-21 02:00N 48°41' W 123°25'0 0.0
2017-Jun-21 01:30N 48°41' W 123°25'815.2
2017-Jun-21 01:01N 48°49' W 123°21'816.5
2017-Jun-21 00:30N 48°56' W 123°15'612.8
2017-Jun-21 00:00N 49°00' W 123°08'0 0.3
2017-Jun-20 23:30N 49°00' W 123°08'917.5
2017-Jun-20 23:00N 48°54' W 123°16'815.2
2017-Jun-20 22:30N 48°47' W 123°21'611.5
2017-Jun-20 22:00N 48°41' W 123°25'0 0.1
2017-Jun-20 21:30N 48°41' W 123°25'815.8
2017-Jun-20 21:00N 48°49' W 123°20'815.6
2017-Jun-20 20:30N 48°56' W 123°15'713.0
2017-Jun-20 20:00N 49°00' W 123°08'0 0.0
2017-Jun-20 19:30N 49°00' W 123°08'917.7
2017-Jun-20 19:00N 48°54' W 123°17'816.2
2017-Jun-20 18:30N 48°46' W 123°21'510.4
2017-Jun-20 18:00N 48°41' W 123°25'0 0.1
2017-Jun-20 17:30N 48°41' W 123°25'815.8
2017-Jun-20 17:00N 48°49' W 123°21'714.3
2017-Jun-20 16:30N 48°55' W 123°16'714.3
2017-Jun-20 16:00N 49°00' W 123°08'0 0.0
2017-Jun-20 15:30N 49°00' W 123°08'815.9
2017-Jun-20 15:00N 48°54' W 123°15'714.8
2017-Jun-20 14:31N 48°48' W 123°21'7 7.0
2017-Jun-20 13:30N 48°41' W 123°25'0 0.0
2017-Jun-20 13:01N 48°41' W 123°25'0 0.0
2017-Jun-20 12:31N 48°41' W 123°25'0 0.0
2017-Jun-20 12:00N 48°41' W 123°25'0 0.0
2017-Jun-20 11:30N 48°41' W 123°25'0 0.0
2017-Jun-20 11:00N 48°41' W 123°25'0 0.0
2017-Jun-20 10:30N 48°41' W 123°25'0 0.0
2017-Jun-20 10:00N 48°41' W 123°25'0 0.0
2017-Jun-20 09:30N 48°41' W 123°25'0 0.0
2017-Jun-20 09:00N 48°41' W 123°25'0 0.0
2017-Jun-20 08:30N 48°41' W 123°25'0 0.0
2017-Jun-20 08:00N 48°41' W 123°25'0 0.0
2017-Jun-20 07:30N 48°41' W 123°25'0 0.0
2017-Jun-20 07:00N 48°41' W 123°25'0 0.0
2017-Jun-20 06:30N 48°41' W 123°25'0 0.0
2017-Jun-20 06:00N 48°41' W 123°25'0 0.0
2017-Jun-20 05:30N 48°41' W 123°25'613.1
2017-Jun-20 05:00N 48°47' W 123°21'815.7
2017-Jun-20 04:30N 48°54' W 123°17'816.2
2017-Jun-20 04:00N 49°00' W 123°08'0 0.4
2017-Jun-20 03:30N 49°00' W 123°08'1019.4
2017-Jun-20 03:00N 48°53' W 123°18'816.4
2017-Jun-20 02:30N 48°45' W 123°23'4 8.1
2017-Jun-20 02:00N 48°41' W 123°25'0 0.1
2017-Jun-20 01:30N 48°41' W 123°25'815.2
2017-Jun-20 01:00N 48°49' W 123°21'816.0
2017-Jun-20 00:30N 48°55' W 123°14'613.0
2017-Jun-20 00:00N 49°00' W 123°08'0 0.5
2017-Jun-19 23:30N 49°00' W 123°08'918.3
2017-Jun-19 23:00N 48°53' W 123°17'612.9
2017-Jun-19 22:30N 48°47' W 123°21'612.4
2017-Jun-19 22:00N 48°41' W 123°25'0 1.0
2017-Jun-19 21:31N 48°42' W 123°24'917.7
2017-Jun-19 20:59N 48°51' W 123°21'917.7
2017-Jun-19 20:30N 48°57' W 123°13'5 9.2
2017-Jun-19 20:00N 49°00' W 123°08'0 0.7
2017-Jun-19 19:30N 49°00' W 123°08'1019.2
2017-Jun-19 19:00N 48°53' W 123°18'815.8
2017-Jun-19 18:30N 48°45' W 123°22'4 8.8
2017-Jun-19 18:01N 48°41' W 123°25'0 0.5
2017-Jun-19 17:30N 48°41' W 123°24'816.4
2017-Jun-19 17:00N 48°49' W 123°21'815.0
2017-Jun-19 16:30N 48°56' W 123°15'612.8
2017-Jun-19 16:00N 49°00' W 123°08'0 0.0
2017-Jun-19 15:30N 49°00' W 123°08'815.8
2017-Jun-19 15:00N 48°54' W 123°16'1414.3
2017-Jun-19 14:00N 48°41' W 123°25'0 0.1
2017-Jun-19 13:30N 48°41' W 123°25'0 0.0
2017-Jun-19 13:00N 48°41' W 123°25'0 0.0
2017-Jun-19 12:30N 48°41' W 123°25'0 0.0
2017-Jun-19 12:00N 48°41' W 123°25'0 0.0
2017-Jun-19 11:30N 48°41' W 123°25'0 0.0
2017-Jun-19 11:00N 48°41' W 123°25'0 0.0
2017-Jun-19 10:30N 48°41' W 123°25'0 0.0
2017-Jun-19 10:00N 48°41' W 123°25'0 0.0
2017-Jun-19 09:30N 48°41' W 123°25'0 0.0
2017-Jun-19 09:00N 48°41' W 123°25'0 0.0
2017-Jun-19 08:30N 48°41' W 123°25'0 0.0
2017-Jun-19 08:00N 48°41' W 123°25'0 0.0
2017-Jun-19 07:30N 48°41' W 123°25'0 0.0
2017-Jun-19 07:00N 48°41' W 123°25'0 0.0
2017-Jun-19 06:30N 48°41' W 123°25'0 0.0
2017-Jun-19 06:00N 48°41' W 123°25'0 0.0
2017-Jun-19 05:30N 48°41' W 123°25'713.8
2017-Jun-19 05:00N 48°48' W 123°21'815.5
2017-Jun-19 04:31N 48°55' W 123°16'815.2
2017-Jun-19 04:00N 49°00' W 123°08'0 0.1
2017-Jun-19 03:30N 49°00' W 123°08'918.1
2017-Jun-19 03:00N 48°53' W 123°17'714.8
2017-Jun-19 02:30N 48°46' W 123°21'611.5
2017-Jun-19 02:00N 48°41' W 123°25'0 0.2
2017-Jun-19 01:31N 48°41' W 123°25'816.3
2017-Jun-19 01:00N 48°49' W 123°21'816.1
2017-Jun-19 00:30N 48°56' W 123°14'611.7
2017-Jun-19 00:00N 49°00' W 123°08'0 0.4
2017-Jun-18 23:30N 49°00' W 123°08'918.8
2017-Jun-18 23:00N 48°53' W 123°17'715.0
2017-Jun-18 22:31N 48°46' W 123°22'510.3
2017-Jun-18 22:00N 48°41' W 123°25'0 0.2
2017-Jun-18 21:31N 48°41' W 123°25'815.1
2017-Jun-18 21:00N 48°49' W 123°21'714.3
2017-Jun-18 20:30N 48°55' W 123°16'814.8
2017-Jun-18 20:00N 49°00' W 123°08'0 0.1
2017-Jun-18 19:30N 49°00' W 123°08'917.7
2017-Jun-18 19:00N 48°54' W 123°17'816.4
2017-Jun-18 18:30N 48°46' W 123°21'510.1
2017-Jun-18 18:00N 48°41' W 123°25'1 1.6
2017-Jun-18 17:30N 48°42' W 123°24'917.7
2017-Jun-18 17:00N 48°50' W 123°21'612.7
2017-Jun-18 16:30N 48°56' W 123°16'713.6
2017-Jun-18 16:00N 49°00' W 123°08'0 0.0
2017-Jun-18 15:30N 49°00' W 123°08'815.6
2017-Jun-18 15:00N 48°54' W 123°15'1414.4
2017-Jun-18 14:01N 48°41' W 123°25'0 0.1
2017-Jun-18 13:30N 48°41' W 123°25'0 0.0
2017-Jun-18 12:59N 48°41' W 123°25'0 0.0
2017-Jun-18 12:26N 48°41' W 123°25'0 0.0
2017-Jun-18 11:59N 48°41' W 123°25'0 0.0
2017-Jun-18 11:29N 48°41' W 123°25'0 0.0
2017-Jun-18 10:59N 48°41' W 123°25'0 0.0
2017-Jun-18 10:29N 48°41' W 123°25'0 0.0
2017-Jun-18 09:59N 48°41' W 123°25'0 0.0
2017-Jun-18 09:29N 48°41' W 123°25'0 0.0
2017-Jun-18 08:59N 48°41' W 123°25'0 0.0
2017-Jun-18 08:29N 48°41' W 123°25'0 0.0
2017-Jun-18 07:59N 48°41' W 123°25'0 0.0
2017-Jun-18 07:29N 48°41' W 123°25'0 0.0
2017-Jun-18 06:59N 48°41' W 123°25'0 0.0
2017-Jun-18 06:29N 48°41' W 123°25'0 0.0
2017-Jun-18 05:59N 48°41' W 123°25'0 0.0
2017-Jun-18 05:29N 48°41' W 123°25'713.7
2017-Jun-18 05:00N 48°48' W 123°21'815.5
2017-Jun-18 04:31N 48°54' W 123°16'815.3
2017-Jun-18 04:00N 49°00' W 123°08'1 1.0
2017-Jun-18 03:30N 48°60' W 123°08'1020.4
2017-Jun-18 03:01N 48°52' W 123°18'916.9
2017-Jun-18 02:30N 48°44' W 123°21'4 7.1
2017-Jun-18 02:00N 48°41' W 123°25'2 3.4
2017-Jun-18 01:30N 48°42' W 123°22'1019.0
2017-Jun-18 01:00N 48°51' W 123°21'917.4
2017-Jun-18 00:31N 48°57' W 123°12'4 7.8
2017-Jun-18 00:00N 49°00' W 123°08'2 4.5
2017-Jun-17 23:30N 48°59' W 123°10'1018.9
2017-Jun-17 23:00N 48°52' W 123°20'816.8
2017-Jun-17 22:30N 48°44' W 123°25'2 5.0
2017-Jun-17 22:01N 48°41' W 123°25'0 0.5
2017-Jun-17 21:31N 48°42' W 123°24'917.1
2017-Jun-17 21:01N 48°50' W 123°21'714.2
2017-Jun-17 20:30N 48°56' W 123°15'612.9
2017-Jun-17 20:00N 49°00' W 123°08'0 0.2
2017-Jun-17 19:30N 49°00' W 123°08'917.9
2017-Jun-17 19:00N 48°53' W 123°17'612.6
2017-Jun-17 18:30N 48°48' W 123°21'713.7
2017-Jun-17 18:00N 48°41' W 123°25'0 0.2
2017-Jun-17 17:30N 48°41' W 123°25'816.0
2017-Jun-17 17:00N 48°49' W 123°21'815.8
2017-Jun-17 16:30N 48°56' W 123°16'613.1
2017-Jun-17 16:00N 49°00' W 123°08'0 0.0
2017-Jun-17 15:30N 49°00' W 123°08'815.4
2017-Jun-17 15:00N 48°54' W 123°15'815.7
2017-Jun-17 14:30N 48°47' W 123°21'7 6.6
2017-Jun-17 13:30N 48°41' W 123°25'0 0.0
2017-Jun-17 13:00N 48°41' W 123°25'0 0.0
2017-Jun-17 12:30N 48°41' W 123°25'0 0.0
2017-Jun-17 11:59N 48°41' W 123°25'0 0.0
2017-Jun-17 11:29N 48°41' W 123°25'0 0.0
2017-Jun-17 10:59N 48°41' W 123°25'0 0.0
2017-Jun-17 10:29N 48°41' W 123°25'0 0.0
2017-Jun-17 09:59N 48°41' W 123°25'0 0.0
2017-Jun-17 09:26N 48°41' W 123°25'0 0.0
2017-Jun-17 08:59N 48°41' W 123°25'0 0.0
2017-Jun-17 08:29N 48°41' W 123°25'0 0.0
2017-Jun-17 07:59N 48°41' W 123°25'0 0.0
2017-Jun-17 07:26N 48°41' W 123°25'0 0.0
2017-Jun-17 06:59N 48°41' W 123°25'0 0.0
2017-Jun-17 06:29N 48°41' W 123°25'0 0.0
2017-Jun-17 05:59N 48°41' W 123°25'0 0.6
2017-Jun-17 05:30N 48°42' W 123°24'816.3
2017-Jun-17 05:00N 48°49' W 123°21'611.3
2017-Jun-17 04:30N 48°54' W 123°16'816.4
2017-Jun-17 04:00N 49°00' W 123°08'0 0.2
2017-Jun-17 03:30N 49°00' W 123°08'918.5
2017-Jun-17 03:00N 48°53' W 123°17'816.3
2017-Jun-17 02:31N 48°45' W 123°21'5 9.7
2017-Jun-17 02:01N 48°41' W 123°25'0 0.6
2017-Jun-17 01:31N 48°41' W 123°24'816.9
2017-Jun-17 01:01N 48°50' W 123°21'713.2
2017-Jun-17 00:30N 48°55' W 123°16'714.1
2017-Jun-17 00:00N 49°00' W 123°08'0 0.0
2017-Jun-16 23:30N 49°00' W 123°08'816.8
2017-Jun-16 23:00N 48°54' W 123°16'815.7
2017-Jun-16 22:30N 48°47' W 123°21'612.0
2017-Jun-16 22:00N 48°41' W 123°25'0 0.0
2017-Jun-16 21:30N 48°41' W 123°25'714.8
2017-Jun-16 21:00N 48°48' W 123°21'917.0
2017-Jun-16 20:30N 48°56' W 123°15'612.6
2017-Jun-16 20:00N 49°00' W 123°08'0 0.0
2017-Jun-16 19:30N 49°00' W 123°08'917.6
2017-Jun-16 18:59N 48°53' W 123°17'715.1
2017-Jun-16 18:30N 48°47' W 123°21'611.4
2017-Jun-16 18:00N 48°41' W 123°25'0 1.0
2017-Jun-16 17:31N 48°42' W 123°24'917.2
2017-Jun-16 17:01N 48°50' W 123°21'816.4
2017-Jun-16 16:30N 48°57' W 123°16'611.7
2017-Jun-16 16:00N 49°00' W 123°08'0 0.1
2017-Jun-16 15:30N 49°00' W 123°08'815.0
2017-Jun-16 15:00N 48°54' W 123°15'714.1
2017-Jun-16 14:30N 48°48' W 123°21'7 7.5
2017-Jun-16 13:31N 48°41' W 123°25'0 0.0
2017-Jun-16 12:58N 48°41' W 123°25'0 0.0
2017-Jun-16 12:28N 48°41' W 123°25'0 0.0
2017-Jun-16 11:58N 48°41' W 123°25'0 0.0
2017-Jun-16 11:28N 48°41' W 123°25'0 0.0
2017-Jun-16 10:58N 48°41' W 123°25'0 0.0
2017-Jun-16 10:28N 48°41' W 123°25'0 0.0
2017-Jun-16 09:58N 48°41' W 123°25'0 0.0
2017-Jun-16 09:28N 48°41' W 123°25'0 0.0
2017-Jun-16 08:37N 48°41' W 123°25'0 0.0
2017-Jun-16 08:25N 48°41' W 123°25'0 0.0
2017-Jun-16 07:58N 48°41' W 123°25'0 0.0
2017-Jun-16 07:28N 48°41' W 123°25'0 0.0
2017-Jun-16 06:58N 48°41' W 123°25'0 0.0
2017-Jun-16 06:28N 48°41' W 123°25'0 0.0
2017-Jun-16 05:58N 48°41' W 123°25'0 0.1
2017-Jun-16 05:28N 48°41' W 123°25'613.8
2017-Jun-16 05:01N 48°47' W 123°21'815.5
2017-Jun-16 04:30N 48°54' W 123°17'816.0
2017-Jun-16 04:00N 49°00' W 123°08'0 0.0
2017-Jun-16 03:31N 49°00' W 123°08'714.0
2017-Jun-16 03:00N 48°55' W 123°15'815.8
2017-Jun-16 02:30N 48°48' W 123°21'714.3
2017-Jun-16 02:00N 48°41' W 123°25'0 0.7
2017-Jun-16 01:30N 48°42' W 123°24'815.5
2017-Jun-16 01:00N 48°49' W 123°21'713.6
2017-Jun-16 00:30N 48°55' W 123°16'715.1
2017-Jun-16 00:00N 49°00' W 123°08'0 0.2
2017-Jun-15 23:30N 49°00' W 123°08'714.4
2017-Jun-15 23:00N 48°55' W 123°15'816.5
2017-Jun-15 22:30N 48°48' W 123°21'713.3
2017-Jun-15 22:00N 48°41' W 123°25'0 0.0
2017-Jun-15 21:30N 48°41' W 123°25'714.0
2017-Jun-15 21:00N 48°48' W 123°21'816.3
2017-Jun-15 20:30N 48°55' W 123°15'713.9
2017-Jun-15 20:00N 49°00' W 123°08'0 0.0
2017-Jun-15 19:30N 49°00' W 123°08'816.5
2017-Jun-15 19:00N 48°54' W 123°16'714.6
2017-Jun-15 18:30N 48°47' W 123°21'713.1
2017-Jun-15 18:00N 48°41' W 123°25'0 0.0
2017-Jun-15 17:30N 48°41' W 123°25'714.0
2017-Jun-15 17:00N 48°48' W 123°21'816.0
2017-Jun-15 16:30N 48°55' W 123°16'714.5
2017-Jun-15 16:00N 49°00' W 123°08'0 0.0
2017-Jun-15 15:30N 49°00' W 123°08'815.6
2017-Jun-15 15:01N 48°54' W 123°15'1414.4
2017-Jun-15 14:00N 48°41' W 123°25'0 0.0
2017-Jun-15 13:30N 48°41' W 123°25'0 0.0
2017-Jun-15 12:58N 48°41' W 123°25'0 0.0
2017-Jun-15 12:28N 48°41' W 123°25'0 0.0
2017-Jun-15 11:58N 48°41' W 123°25'0 0.0
2017-Jun-15 11:28N 48°41' W 123°25'0 0.0
2017-Jun-15 10:58N 48°41' W 123°25'0 0.0
2017-Jun-15 10:28N 48°41' W 123°25'0 0.0
2017-Jun-15 09:58N 48°41' W 123°25'0 0.0
2017-Jun-15 09:28N 48°41' W 123°25'0 0.0
2017-Jun-15 08:58N 48°41' W 123°25'0 0.0
2017-Jun-15 08:28N 48°41' W 123°25'0 0.0
2017-Jun-15 07:58N 48°41' W 123°25'0 0.0
2017-Jun-15 07:28N 48°41' W 123°25'0 0.0
2017-Jun-15 06:58N 48°41' W 123°25'0 0.0
2017-Jun-15 06:25N 48°41' W 123°25'0 0.0
2017-Jun-15 05:58N 48°41' W 123°25'0 0.1
2017-Jun-15 05:30N 48°41' W 123°25'715.0
2017-Jun-15 05:00N 48°48' W 123°21'714.8
2017-Jun-15 04:30N 48°55' W 123°16'714.6
2017-Jun-15 04:00N 49°00' W 123°08'1 1.5
2017-Jun-15 03:31N 48°60' W 123°08'1020.0
2017-Jun-15 03:00N 48°52' W 123°18'817.1
2017-Jun-15 02:30N 48°44' W 123°24'3 5.9
2017-Jun-15 02:00N 48°41' W 123°25'2 4.2
2017-Jun-15 01:30N 48°42' W 123°22'918.2
2017-Jun-15 01:00N 48°51' W 123°21'611.7
2017-Jun-15 00:30N 48°56' W 123°15'713.5
2017-Jun-15 00:00N 49°00' W 123°08'0 0.4
2017-Jun-14 23:30N 49°00' W 123°08'1018.8
2017-Jun-14 23:00N 48°53' W 123°18'817.0
2017-Jun-14 22:31N 48°45' W 123°22'4 8.4
2017-Jun-14 22:00N 48°41' W 123°25'0 0.1
2017-Jun-14 21:31N 48°41' W 123°25'816.3
2017-Jun-14 21:01N 48°49' W 123°21'917.1
2017-Jun-14 20:30N 48°56' W 123°14'510.7
2017-Jun-14 20:00N 49°00' W 123°08'0 0.3
2017-Jun-14 19:30N 49°00' W 123°08'918.0
2017-Jun-14 18:59N 48°53' W 123°17'714.3
2017-Jun-14 18:30N 48°47' W 123°21'611.7
2017-Jun-14 18:00N 48°41' W 123°25'0 0.0
2017-Jun-14 17:31N 48°41' W 123°25'714.1
2017-Jun-14 17:01N 48°48' W 123°21'816.0
2017-Jun-14 16:30N 48°55' W 123°15'714.3
2017-Jun-14 16:00N 49°00' W 123°08'0 0.0
2017-Jun-14 15:30N 49°00' W 123°08'714.5
2017-Jun-14 15:00N 48°55' W 123°15'1514.8
2017-Jun-14 14:00N 48°41' W 123°25'0 0.0
2017-Jun-14 13:30N 48°41' W 123°25'0 0.0
2017-Jun-14 12:58N 48°41' W 123°25'0 0.0
2017-Jun-14 12:28N 48°41' W 123°25'0 0.0
2017-Jun-14 11:58N 48°41' W 123°25'0 0.0
2017-Jun-14 11:28N 48°41' W 123°25'0 0.0
2017-Jun-14 10:58N 48°41' W 123°25'0 0.0
2017-Jun-14 10:28N 48°41' W 123°25'0 0.0
2017-Jun-14 09:58N 48°41' W 123°25'0 0.0
2017-Jun-14 09:28N 48°41' W 123°25'0 0.0
2017-Jun-14 08:58N 48°41' W 123°25'0 0.0
2017-Jun-14 08:22N 48°41' W 123°25'0 0.0
2017-Jun-14 07:58N 48°41' W 123°25'0 0.0
2017-Jun-14 07:28N 48°41' W 123°25'0 0.0
2017-Jun-14 06:58N 48°41' W 123°25'0 0.0
2017-Jun-14 06:28N 48°41' W 123°25'0 0.0
2017-Jun-14 05:58N 48°41' W 123°25'0 0.2
2017-Jun-14 05:31N 48°41' W 123°25'815.8
2017-Jun-14 05:01N 48°49' W 123°21'816.8
2017-Jun-14 04:31N 48°56' W 123°14'611.5
2017-Jun-14 04:00N 49°00' W 123°08'2 3.8
2017-Jun-14 03:30N 48°59' W 123°10'1018.9
2017-Jun-14 02:57N 48°52' W 123°21'919.2
2017-Jun-14 02:30N 48°43' W 123°21'3 5.8
2017-Jun-14 02:00N 48°41' W 123°25'1 2.7
2017-Jun-14 01:30N 48°42' W 123°23'917.8
2017-Jun-14 01:00N 48°50' W 123°21'611.5
2017-Jun-14 00:30N 48°55' W 123°16'714.6
2017-Jun-14 00:00N 49°00' W 123°08'0 0.0
2017-Jun-13 23:30N 49°00' W 123°08'816.0
2017-Jun-13 23:00N 48°54' W 123°16'816.9
2017-Jun-13 22:30N 48°46' W 123°21'611.3
2017-Jun-13 22:00N 48°41' W 123°25'0 0.1
2017-Jun-13 21:31N 48°41' W 123°25'815.5
2017-Jun-13 21:00N 48°49' W 123°21'815.9
2017-Jun-13 20:31N 48°56' W 123°15'612.6
2017-Jun-13 20:00N 49°00' W 123°08'0 0.1
2017-Jun-13 19:30N 49°00' W 123°08'917.5
2017-Jun-13 19:00N 48°54' W 123°16'  
Track history (hours):
 
Tides and Currents Weather Stations Pressure Air Temp Water Temp Dewpoint Dewpoint Depression Visibility Wind Speed Wind Dir Waves Ship Positions

Spirit Of Vi

Last reported at 2017-Jun-23 18:30 UTC. Time now 2017-Jun-23 18:50 UTC.
Position N 48°47' W 123°21'.

Length 168 m; draft 5 m.

Type: Ship. MMSI: 316001269.

Date/timePositionNaut miles runAvg speedWind from/ knotsBaromVisibWave heightAir tempDewpointWater temp
2017-Jun-23 18:30N 48°47' W 123°21'611.1
2017-Jun-23 18:00N 48°41' W 123°25'0 0.1
2017-Jun-23 17:30N 48°41' W 123°25'816.1
2017-Jun-23 17:00N 48°49' W 123°21'815.0
2017-Jun-23 16:30N 48°56' W 123°15'713.2
2017-Jun-23 16:00N 49°00' W 123°08'0 0.1
2017-Jun-23 15:30N 49°00' W 123°08'917.3
2017-Jun-23 15:00N 48°54' W 123°17'1313.4
2017-Jun-23 14:01N 48°41' W 123°25'0 0.0
2017-Jun-23 13:30N 48°41' W 123°25'0 0.0
2017-Jun-23 13:01N 48°41' W 123°25'0 0.0
2017-Jun-23 12:31N 48°41' W 123°25'0 0.0
2017-Jun-23 11:58N 48°41' W 123°25'0 0.0
2017-Jun-23 11:28N 48°41' W 123°25'0 0.0
2017-Jun-23 10:58N 48°41' W 123°25'0 0.0
2017-Jun-23 10:28N 48°41' W 123°25'0 0.0
2017-Jun-23 09:58N 48°41' W 123°25'0 0.0
2017-Jun-23 09:28N 48°41' W 123°25'0 0.0
2017-Jun-23 08:58N 48°41' W 123°25'0 0.0
2017-Jun-23 08:28N 48°41' W 123°25'0 0.0
2017-Jun-23 07:55N 48°41' W 123°25'0 0.0
2017-Jun-23 07:28N 48°41' W 123°25'0 0.0
2017-Jun-23 06:58N 48°41' W 123°25'0 0.0
2017-Jun-23 06:28N 48°41' W 123°25'0 0.0
2017-Jun-23 05:58N 48°41' W 123°25'0 0.0
2017-Jun-23 05:27N 48°41' W 123°25'715.0
2017-Jun-23 05:00N 48°48' W 123°21'816.2
2017-Jun-23 04:30N 48°55' W 123°16'714.7
2017-Jun-23 04:00N 49°00' W 123°08'0 0.0
2017-Jun-23 03:30N 49°00' W 123°08'816.5
2017-Jun-23 02:59N 48°54' W 123°16'613.1
2017-Jun-23 02:30N 48°48' W 123°21'714.4
2017-Jun-23 02:00N 48°42' W 123°25'0 0.3
2017-Jun-23 01:30N 48°41' W 123°25'714.1
2017-Jun-23 01:00N 48°48' W 123°21'816.2
2017-Jun-23 00:30N 48°56' W 123°15'714.2
2017-Jun-23 00:00N 49°00' W 123°08'0 0.0
2017-Jun-22 23:30N 49°00' W 123°08'816.4
2017-Jun-22 23:00N 48°54' W 123°16'816.0
2017-Jun-22 22:30N 48°47' W 123°21'612.0
2017-Jun-22 22:00N 48°41' W 123°25'1 1.1
2017-Jun-22 21:31N 48°42' W 123°24'816.4
2017-Jun-22 21:00N 48°49' W 123°20'612.5
2017-Jun-22 20:30N 48°55' W 123°16'814.9
2017-Jun-22 20:00N 49°00' W 123°08'0 0.1
2017-Jun-22 19:30N 49°00' W 123°08'816.7
2017-Jun-22 19:00N 48°54' W 123°16'815.9
2017-Jun-22 18:30N 48°47' W 123°21'611.8
2017-Jun-22 18:01N 48°41' W 123°25'0 0.7
2017-Jun-22 17:31N 48°42' W 123°24'917.0
2017-Jun-22 17:00N 48°50' W 123°21'916.7
2017-Jun-22 16:30N 48°57' W 123°13'510.1
2017-Jun-22 16:00N 49°00' W 123°08'0 0.2
2017-Jun-22 15:30N 49°00' W 123°08'917.0
2017-Jun-22 15:00N 48°54' W 123°17'613.3
2017-Jun-22 14:30N 48°48' W 123°21'7 6.8
2017-Jun-22 13:30N 48°41' W 123°25'0 0.0
2017-Jun-22 13:00N 48°41' W 123°25'0 0.0
2017-Jun-22 12:30N 48°41' W 123°25'0 0.0
2017-Jun-22 11:58N 48°41' W 123°25'0 0.0
2017-Jun-22 11:28N 48°41' W 123°25'0 0.0
2017-Jun-22 10:58N 48°41' W 123°25'0 0.0
2017-Jun-22 10:28N 48°41' W 123°25'0 0.0
2017-Jun-22 09:58N 48°41' W 123°25'0 0.0
2017-Jun-22 09:28N 48°41' W 123°25'0 0.0
2017-Jun-22 08:58N 48°41' W 123°25'0 0.0
2017-Jun-22 08:28N 48°41' W 123°25'0 0.0
2017-Jun-22 07:58N 48°41' W 123°25'0 0.0
2017-Jun-22 07:28N 48°41' W 123°25'0 0.0
2017-Jun-22 06:58N 48°41' W 123°25'0 0.0
2017-Jun-22 06:28N 48°41' W 123°25'0 0.0
2017-Jun-22 05:58N 48°41' W 123°25'0 0.0
2017-Jun-22 05:30N 48°41' W 123°25'714.7
2017-Jun-22 05:00N 48°48' W 123°20'714.8
2017-Jun-22 04:31N 48°55' W 123°16'814.8
2017-Jun-22 04:00N 49°00' W 123°08'0 0.5
2017-Jun-22 03:30N 49°00' W 123°08'918.0
2017-Jun-22 03:00N 48°53' W 123°17'713.6
2017-Jun-22 02:30N 48°47' W 123°21'612.3
2017-Jun-22 02:00N 48°41' W 123°25'0 0.6
2017-Jun-22 01:31N 48°42' W 123°24'917.5
2017-Jun-22 01:00N 48°50' W 123°21'714.2
2017-Jun-22 00:30N 48°56' W 123°15'612.7
2017-Jun-22 00:00N 49°00' W 123°08'0 0.6
2017-Jun-21 23:30N 49°00' W 123°08'918.7
2017-Jun-21 23:00N 48°53' W 123°17'815.6
2017-Jun-21 22:31N 48°46' W 123°22'5 9.8
2017-Jun-21 22:01N 48°41' W 123°25'1 2.6
2017-Jun-21 21:31N 48°42' W 123°23'917.4
2017-Jun-21 21:00N 48°50' W 123°21'815.5
2017-Jun-21 20:31N 48°56' W 123°14'611.0
2017-Jun-21 20:00N 49°00' W 123°08'0 0.6
2017-Jun-21 19:31N 49°00' W 123°08'918.2
2017-Jun-21 19:00N 48°53' W 123°17'714.2
2017-Jun-21 18:30N 48°46' W 123°20'611.5
2017-Jun-21 18:00N 48°41' W 123°25'0 0.2
2017-Jun-21 17:30N 48°41' W 123°25'816.2
2017-Jun-21 17:00N 48°49' W 123°21'816.0
2017-Jun-21 16:30N 48°56' W 123°14'612.0
2017-Jun-21 16:00N 49°00' W 123°08'0 0.0
2017-Jun-21 15:30N 49°00' W 123°08'815.9
2017-Jun-21 15:01N 48°54' W 123°16'713.9
2017-Jun-21 14:30N 48°48' W 123°21'7 7.2
2017-Jun-21 13:31N 48°41' W 123°25'0 0.0
2017-Jun-21 13:00N 48°41' W 123°25'0 0.0
2017-Jun-21 12:30N 48°41' W 123°25'0 0.0
2017-Jun-21 12:01N 48°41' W 123°25'0 0.0
2017-Jun-21 11:30N 48°41' W 123°25'0 0.0
2017-Jun-21 11:00N 48°41' W 123°25'0 0.0
2017-Jun-21 10:30N 48°41' W 123°25'0 0.0
2017-Jun-21 10:00N 48°41' W 123°25'0 0.0
2017-Jun-21 09:30N 48°41' W 123°25'0 0.0
2017-Jun-21 09:00N 48°41' W 123°25'0 0.0
2017-Jun-21 08:30N 48°41' W 123°25'0 0.0
2017-Jun-21 08:00N 48°41' W 123°25'0 0.0
2017-Jun-21 07:30N 48°41' W 123°25'0 0.0
2017-Jun-21 07:00N 48°41' W 123°25'0 0.0
2017-Jun-21 06:30N 48°41' W 123°25'0 0.0
2017-Jun-21 06:00N 48°41' W 123°25'0 0.0
2017-Jun-21 05:30N 48°41' W 123°25'714.0
2017-Jun-21 05:01N 48°48' W 123°21'815.5
2017-Jun-21 04:30N 48°55' W 123°16'714.7
2017-Jun-21 04:00N 49°00' W 123°08'0 0.0
2017-Jun-21 03:30N 49°00' W 123°08'816.8
2017-Jun-21 03:00N 48°54' W 123°16'714.5
2017-Jun-21 02:30N 48°47' W 123°21'612.9
2017-Jun-21 02:00N 48°41' W 123°25'0 0.0
2017-Jun-21 01:30N 48°41' W 123°25'815.2
2017-Jun-21 01:01N 48°49' W 123°21'816.5
2017-Jun-21 00:30N 48°56' W 123°15'612.8
2017-Jun-21 00:00N 49°00' W 123°08'0 0.3
2017-Jun-20 23:30N 49°00' W 123°08'917.5
2017-Jun-20 23:00N 48°54' W 123°16'815.2
2017-Jun-20 22:30N 48°47' W 123°21'611.5
2017-Jun-20 22:00N 48°41' W 123°25'0 0.1
2017-Jun-20 21:30N 48°41' W 123°25'815.8
2017-Jun-20 21:00N 48°49' W 123°20'815.6
2017-Jun-20 20:30N 48°56' W 123°15'713.0
2017-Jun-20 20:00N 49°00' W 123°08'0 0.0
2017-Jun-20 19:30N 49°00' W 123°08'917.7
2017-Jun-20 19:00N 48°54' W 123°17'816.2
2017-Jun-20 18:30N 48°46' W 123°21'510.4
2017-Jun-20 18:00N 48°41' W 123°25'0 0.1
2017-Jun-20 17:30N 48°41' W 123°25'815.8
2017-Jun-20 17:00N 48°49' W 123°21'714.3
2017-Jun-20 16:30N 48°55' W 123°16'714.3
2017-Jun-20 16:00N 49°00' W 123°08'0 0.0
2017-Jun-20 15:30N 49°00' W 123°08'815.9
2017-Jun-20 15:00N 48°54' W 123°15'714.8
2017-Jun-20 14:31N 48°48' W 123°21'7 7.0
2017-Jun-20 13:30N 48°41' W 123°25'0 0.0
2017-Jun-20 13:01N 48°41' W 123°25'0 0.0
2017-Jun-20 12:31N 48°41' W 123°25'0 0.0
2017-Jun-20 12:00N 48°41' W 123°25'0 0.0
2017-Jun-20 11:30N 48°41' W 123°25'0 0.0
2017-Jun-20 11:00N 48°41' W 123°25'0 0.0
2017-Jun-20 10:30N 48°41' W 123°25'0 0.0
2017-Jun-20 10:00N 48°41' W 123°25'0 0.0
2017-Jun-20 09:30N 48°41' W 123°25'0 0.0
2017-Jun-20 09:00N 48°41' W 123°25'0 0.0
2017-Jun-20 08:30N 48°41' W 123°25'0 0.0
2017-Jun-20 08:00N 48°41' W 123°25'0 0.0
2017-Jun-20 07:30N 48°41' W 123°25'0 0.0
2017-Jun-20 07:00N 48°41' W 123°25'0 0.0
2017-Jun-20 06:30N 48°41' W 123°25'0 0.0
2017-Jun-20 06:00N 48°41' W 123°25'0 0.0
2017-Jun-20 05:30N 48°41' W 123°25'613.1
2017-Jun-20 05:00N 48°47' W 123°21'815.7
2017-Jun-20 04:30N 48°54' W 123°17'816.2
2017-Jun-20 04:00N 49°00' W 123°08'0 0.4
2017-Jun-20 03:30N 49°00' W 123°08'1019.4
2017-Jun-20 03:00N 48°53' W 123°18'816.4
2017-Jun-20 02:30N 48°45' W 123°23'4 8.1
2017-Jun-20 02:00N 48°41' W 123°25'0 0.1
2017-Jun-20 01:30N 48°41' W 123°25'815.2
2017-Jun-20 01:00N 48°49' W 123°21'816.0
2017-Jun-20 00:30N 48°55' W 123°14'613.0
2017-Jun-20 00:00N 49°00' W 123°08'0 0.5
2017-Jun-19 23:30N 49°00' W 123°08'918.3
2017-Jun-19 23:00N 48°53' W 123°17'612.9
2017-Jun-19 22:30N 48°47' W 123°21'612.4
2017-Jun-19 22:00N 48°41' W 123°25'0 1.0
2017-Jun-19 21:31N 48°42' W 123°24'917.7
2017-Jun-19 20:59N 48°51' W 123°21'917.7
2017-Jun-19 20:30N 48°57' W 123°13'5 9.2
2017-Jun-19 20:00N 49°00' W 123°08'0 0.7
2017-Jun-19 19:30N 49°00' W 123°08'1019.2
2017-Jun-19 19:00N 48°53' W 123°18'815.8
2017-Jun-19 18:30N 48°45' W 123°22'4 8.8
2017-Jun-19 18:01N 48°41' W 123°25'0 0.5
2017-Jun-19 17:30N 48°41' W 123°24'816.4
2017-Jun-19 17:00N 48°49' W 123°21'815.0
2017-Jun-19 16:30N 48°56' W 123°15'612.8
2017-Jun-19 16:00N 49°00' W 123°08'0 0.0
2017-Jun-19 15:30N 49°00' W 123°08'815.8
2017-Jun-19 15:00N 48°54' W 123°16'1414.3
2017-Jun-19 14:00N 48°41' W 123°25'0 0.1
2017-Jun-19 13:30N 48°41' W 123°25'0 0.0
2017-Jun-19 13:00N 48°41' W 123°25'0 0.0
2017-Jun-19 12:30N 48°41' W 123°25'0 0.0
2017-Jun-19 12:00N 48°41' W 123°25'0 0.0
2017-Jun-19 11:30N 48°41' W 123°25'0 0.0
2017-Jun-19 11:00N 48°41' W 123°25'0 0.0
2017-Jun-19 10:30N 48°41' W 123°25'0 0.0
2017-Jun-19 10:00N 48°41' W 123°25'0 0.0
2017-Jun-19 09:30N 48°41' W 123°25'0 0.0
2017-Jun-19 09:00N 48°41' W 123°25'0 0.0
2017-Jun-19 08:30N 48°41' W 123°25'0 0.0
2017-Jun-19 08:00N 48°41' W 123°25'0 0.0
2017-Jun-19 07:30N 48°41' W 123°25'0 0.0
2017-Jun-19 07:00N 48°41' W 123°25'0 0.0
2017-Jun-19 06:30N 48°41' W 123°25'0 0.0
2017-Jun-19 06:00N 48°41' W 123°25'0 0.0
2017-Jun-19 05:30N 48°41' W 123°25'713.8
2017-Jun-19 05:00N 48°48' W 123°21'815.5
2017-Jun-19 04:31N 48°55' W 123°16'815.2
2017-Jun-19 04:00N 49°00' W 123°08'0 0.1
2017-Jun-19 03:30N 49°00' W 123°08'918.1
2017-Jun-19 03:00N 48°53' W 123°17'714.8
2017-Jun-19 02:30N 48°46' W 123°21'611.5
2017-Jun-19 02:00N 48°41' W 123°25'0 0.2
2017-Jun-19 01:31N 48°41' W 123°25'816.3
2017-Jun-19 01:00N 48°49' W 123°21'816.1
2017-Jun-19 00:30N 48°56' W 123°14'611.7
2017-Jun-19 00:00N 49°00' W 123°08'0 0.4
2017-Jun-18 23:30N 49°00' W 123°08'918.8
2017-Jun-18 23:00N 48°53' W 123°17'715.0
2017-Jun-18 22:31N 48°46' W 123°22'510.3
2017-Jun-18 22:00N 48°41' W 123°25'0 0.2
2017-Jun-18 21:31N 48°41' W 123°25'815.1
2017-Jun-18 21:00N 48°49' W 123°21'714.3
2017-Jun-18 20:30N 48°55' W 123°16'814.8
2017-Jun-18 20:00N 49°00' W 123°08'0 0.1
2017-Jun-18 19:30N 49°00' W 123°08'917.7
2017-Jun-18 19:00N 48°54' W 123°17'816.4
2017-Jun-18 18:30N 48°46' W 123°21'510.1
2017-Jun-18 18:00N 48°41' W 123°25'1 1.6
2017-Jun-18 17:30N 48°42' W 123°24'917.7
2017-Jun-18 17:00N 48°50' W 123°21'612.7
2017-Jun-18 16:30N 48°56' W 123°16'713.6
2017-Jun-18 16:00N 49°00' W 123°08'0 0.0
2017-Jun-18 15:30N 49°00' W 123°08'815.6
2017-Jun-18 15:00N 48°54' W 123°15'1414.4
2017-Jun-18 14:01N 48°41' W 123°25'0 0.1
2017-Jun-18 13:30N 48°41' W 123°25'0 0.0
2017-Jun-18 12:59N 48°41' W 123°25'0 0.0
2017-Jun-18 12:26N 48°41' W 123°25'0 0.0
2017-Jun-18 11:59N 48°41' W 123°25'0 0.0
2017-Jun-18 11:29N 48°41' W 123°25'0 0.0
2017-Jun-18 10:59N 48°41' W 123°25'0 0.0
2017-Jun-18 10:29N 48°41' W 123°25'0 0.0
2017-Jun-18 09:59N 48°41' W 123°25'0 0.0
2017-Jun-18 09:29N 48°41' W 123°25'0 0.0
2017-Jun-18 08:59N 48°41' W 123°25'0 0.0
2017-Jun-18 08:29N 48°41' W 123°25'0 0.0
2017-Jun-18 07:59N 48°41' W 123°25'0 0.0
2017-Jun-18 07:29N 48°41' W 123°25'0 0.0
2017-Jun-18 06:59N 48°41' W 123°25'0 0.0
2017-Jun-18 06:29N 48°41' W 123°25'0 0.0
2017-Jun-18 05:59N 48°41' W 123°25'0 0.0
2017-Jun-18 05:29N 48°41' W 123°25'713.7
2017-Jun-18 05:00N 48°48' W 123°21'815.5
2017-Jun-18 04:31N 48°54' W 123°16'815.3
2017-Jun-18 04:00N 49°00' W 123°08'1 1.0
2017-Jun-18 03:30N 48°60' W 123°08'1020.4
2017-Jun-18 03:01N 48°52' W 123°18'916.9
2017-Jun-18 02:30N 48°44' W 123°21'4 7.1
2017-Jun-18 02:00N 48°41' W 123°25'2 3.4
2017-Jun-18 01:30N 48°42' W 123°22'1019.0
2017-Jun-18 01:00N 48°51' W 123°21'917.4
2017-Jun-18 00:31N 48°57' W 123°12'4 7.8
2017-Jun-18 00:00N 49°00' W 123°08'2 4.5
2017-Jun-17 23:30N 48°59' W 123°10'1018.9
2017-Jun-17 23:00N 48°52' W 123°20'816.8
2017-Jun-17 22:30N 48°44' W 123°25'2 5.0
2017-Jun-17 22:01N 48°41' W 123°25'0 0.5
2017-Jun-17 21:31N 48°42' W 123°24'917.1
2017-Jun-17 21:01N 48°50' W 123°21'714.2
2017-Jun-17 20:30N 48°56' W 123°15'612.9
2017-Jun-17 20:00N 49°00' W 123°08'0 0.2
2017-Jun-17 19:30N 49°00' W 123°08'917.9
2017-Jun-17 19:00N 48°53' W 123°17'612.6
2017-Jun-17 18:30N 48°48' W 123°21'713.7
2017-Jun-17 18:00N 48°41' W 123°25'0 0.2
2017-Jun-17 17:30N 48°41' W 123°25'816.0
2017-Jun-17 17:00N 48°49' W 123°21'815.8
2017-Jun-17 16:30N 48°56' W 123°16'613.1
2017-Jun-17 16:00N 49°00' W 123°08'0 0.0
2017-Jun-17 15:30N 49°00' W 123°08'815.4
2017-Jun-17 15:00N 48°54' W 123°15'815.7
2017-Jun-17 14:30N 48°47' W 123°21'7 6.6
2017-Jun-17 13:30N 48°41' W 123°25'0 0.0
2017-Jun-17 13:00N 48°41' W 123°25'0 0.0
2017-Jun-17 12:30N 48°41' W 123°25'0 0.0
2017-Jun-17 11:59N 48°41' W 123°25'0 0.0
2017-Jun-17 11:29N 48°41' W 123°25'0 0.0
2017-Jun-17 10:59N 48°41' W 123°25'0 0.0
2017-Jun-17 10:29N 48°41' W 123°25'0 0.0
2017-Jun-17 09:59N 48°41' W 123°25'0 0.0
2017-Jun-17 09:26N 48°41' W 123°25'0 0.0
2017-Jun-17 08:59N 48°41' W 123°25'0 0.0
2017-Jun-17 08:29N 48°41' W 123°25'0 0.0
2017-Jun-17 07:59N 48°41' W 123°25'0 0.0
2017-Jun-17 07:26N 48°41' W 123°25'0 0.0
2017-Jun-17 06:59N 48°41' W 123°25'0 0.0
2017-Jun-17 06:29N 48°41' W 123°25'0 0.0
2017-Jun-17 05:59N 48°41' W 123°25'0 0.6
2017-Jun-17 05:30N 48°42' W 123°24'816.3
2017-Jun-17 05:00N 48°49' W 123°21'611.3
2017-Jun-17 04:30N 48°54' W 123°16'816.4
2017-Jun-17 04:00N 49°00' W 123°08'0 0.2
2017-Jun-17 03:30N 49°00' W 123°08'918.5
2017-Jun-17 03:00N 48°53' W 123°17'816.3
2017-Jun-17 02:31N 48°45' W 123°21'5 9.7
2017-Jun-17 02:01N 48°41' W 123°25'0 0.6
2017-Jun-17 01:31N 48°41' W 123°24'816.9
2017-Jun-17 01:01N 48°50' W 123°21'713.2
2017-Jun-17 00:30N 48°55' W 123°16'714.1
2017-Jun-17 00:00N 49°00' W 123°08'0 0.0
2017-Jun-16 23:30N 49°00' W 123°08'816.8
2017-Jun-16 23:00N 48°54' W 123°16'815.7
2017-Jun-16 22:30N 48°47' W 123°21'612.0
2017-Jun-16 22:00N 48°41' W 123°25'0 0.0
2017-Jun-16 21:30N 48°41' W 123°25'714.8
2017-Jun-16 21:00N 48°48' W 123°21'917.0
2017-Jun-16 20:30N 48°56' W 123°15'612.6
2017-Jun-16 20:00N 49°00' W 123°08'0 0.0
2017-Jun-16 19:30N 49°00' W 123°08'917.6
2017-Jun-16 18:59N 48°53' W 123°17'715.1
2017-Jun-16 18:30N 48°47' W 123°21'611.4
2017-Jun-16 18:00N 48°41' W 123°25'0 1.0
2017-Jun-16 17:31N 48°42' W 123°24'917.2
2017-Jun-16 17:01N 48°50' W 123°21'816.4
2017-Jun-16 16:30N 48°57' W 123°16'611.7
2017-Jun-16 16:00N 49°00' W 123°08'0 0.1
2017-Jun-16 15:30N 49°00' W 123°08'815.0
2017-Jun-16 15:00N 48°54' W 123°15'714.1
2017-Jun-16 14:30N 48°48' W 123°21'7 7.5
2017-Jun-16 13:31N 48°41' W 123°25'0 0.0
2017-Jun-16 12:58N 48°41' W 123°25'0 0.0
2017-Jun-16 12:28N 48°41' W 123°25'0 0.0
2017-Jun-16 11:58N 48°41' W 123°25'0 0.0
2017-Jun-16 11:28N 48°41' W 123°25'0 0.0
2017-Jun-16 10:58N 48°41' W 123°25'0 0.0
2017-Jun-16 10:28N 48°41' W 123°25'0 0.0
2017-Jun-16 09:58N 48°41' W 123°25'0 0.0
2017-Jun-16 09:28N 48°41' W 123°25'0 0.0
2017-Jun-16 08:37N 48°41' W 123°25'0 0.0
2017-Jun-16 08:25N 48°41' W 123°25'0 0.0
2017-Jun-16 07:58N 48°41' W 123°25'0 0.0
2017-Jun-16 07:28N 48°41' W 123°25'0 0.0
2017-Jun-16 06:58N 48°41' W 123°25'0 0.0
2017-Jun-16 06:28N 48°41' W 123°25'0 0.0
2017-Jun-16 05:58N 48°41' W 123°25'0 0.1
2017-Jun-16 05:28N 48°41' W 123°25'613.8
2017-Jun-16 05:01N 48°47' W 123°21'815.5
2017-Jun-16 04:30N 48°54' W 123°17'816.0
2017-Jun-16 04:00N 49°00' W 123°08'0 0.0
2017-Jun-16 03:31N 49°00' W 123°08'714.0
2017-Jun-16 03:00N 48°55' W 123°15'815.8
2017-Jun-16 02:30N 48°48' W 123°21'714.3
2017-Jun-16 02:00N 48°41' W 123°25'0 0.7
2017-Jun-16 01:30N 48°42' W 123°24'815.5
2017-Jun-16 01:00N 48°49' W 123°21'713.6
2017-Jun-16 00:30N 48°55' W 123°16'715.1
2017-Jun-16 00:00N 49°00' W 123°08'0 0.2
2017-Jun-15 23:30N 49°00' W 123°08'714.4
2017-Jun-15 23:00N 48°55' W 123°15'816.5
2017-Jun-15 22:30N 48°48' W 123°21'713.3
2017-Jun-15 22:00N 48°41' W 123°25'0 0.0
2017-Jun-15 21:30N 48°41' W 123°25'714.0
2017-Jun-15 21:00N 48°48' W 123°21'816.3
2017-Jun-15 20:30N 48°55' W 123°15'713.9
2017-Jun-15 20:00N 49°00' W 123°08'0 0.0
2017-Jun-15 19:30N 49°00' W 123°08'816.5
2017-Jun-15 19:00N 48°54' W 123°16'714.6
2017-Jun-15 18:30N 48°47' W 123°21'713.1
2017-Jun-15 18:00N 48°41' W 123°25'0 0.0
2017-Jun-15 17:30N 48°41' W 123°25'714.0
2017-Jun-15 17:00N 48°48' W 123°21'816.0
2017-Jun-15 16:30N 48°55' W 123°16'714.5
2017-Jun-15 16:00N 49°00' W 123°08'0 0.0
2017-Jun-15 15:30N 49°00' W 123°08'815.6
2017-Jun-15 15:01N 48°54' W 123°15'1414.4
2017-Jun-15 14:00N 48°41' W 123°25'0 0.0
2017-Jun-15 13:30N 48°41' W 123°25'0 0.0
2017-Jun-15 12:58N 48°41' W 123°25'0 0.0
2017-Jun-15 12:28N 48°41' W 123°25'0 0.0
2017-Jun-15 11:58N 48°41' W 123°25'0 0.0
2017-Jun-15 11:28N 48°41' W 123°25'0 0.0
2017-Jun-15 10:58N 48°41' W 123°25'0 0.0
2017-Jun-15 10:28N 48°41' W 123°25'0 0.0
2017-Jun-15 09:58N 48°41' W 123°25'0 0.0
2017-Jun-15 09:28N 48°41' W 123°25'0 0.0
2017-Jun-15 08:58N 48°41' W 123°25'0 0.0
2017-Jun-15 08:28N 48°41' W 123°25'0 0.0
2017-Jun-15 07:58N 48°41' W 123°25'0 0.0
2017-Jun-15 07:28N 48°41' W 123°25'0 0.0
2017-Jun-15 06:58N 48°41' W 123°25'0 0.0
2017-Jun-15 06:25N 48°41' W 123°25'0 0.0
2017-Jun-15 05:58N 48°41' W 123°25'0 0.1
2017-Jun-15 05:30N 48°41' W 123°25'715.0
2017-Jun-15 05:00N 48°48' W 123°21'714.8
2017-Jun-15 04:30N 48°55' W 123°16'714.6
2017-Jun-15 04:00N 49°00' W 123°08'1 1.5
2017-Jun-15 03:31N 48°60' W 123°08'1020.0
2017-Jun-15 03:00N 48°52' W 123°18'817.1
2017-Jun-15 02:30N 48°44' W 123°24'3 5.9
2017-Jun-15 02:00N 48°41' W 123°25'2 4.2
2017-Jun-15 01:30N 48°42' W 123°22'918.2
2017-Jun-15 01:00N 48°51' W 123°21'611.7
2017-Jun-15 00:30N 48°56' W 123°15'713.5
2017-Jun-15 00:00N 49°00' W 123°08'0 0.4
2017-Jun-14 23:30N 49°00' W 123°08'1018.8
2017-Jun-14 23:00N 48°53' W 123°18'817.0
2017-Jun-14 22:31N 48°45' W 123°22'4 8.4
2017-Jun-14 22:00N 48°41' W 123°25'0 0.1
2017-Jun-14 21:31N 48°41' W 123°25'816.3
2017-Jun-14 21:01N 48°49' W 123°21'917.1
2017-Jun-14 20:30N 48°56' W 123°14'510.7
2017-Jun-14 20:00N 49°00' W 123°08'0 0.3
2017-Jun-14 19:30N 49°00' W 123°08'918.0
2017-Jun-14 18:59N 48°53' W 123°17'714.3
2017-Jun-14 18:30N 48°47' W 123°21'611.7
2017-Jun-14 18:00N 48°41' W 123°25'0 0.0
2017-Jun-14 17:31N 48°41' W 123°25'714.1
2017-Jun-14 17:01N 48°48' W 123°21'816.0
2017-Jun-14 16:30N 48°55' W 123°15'714.3
2017-Jun-14 16:00N 49°00' W 123°08'0 0.0
2017-Jun-14 15:30N 49°00' W 123°08'714.5
2017-Jun-14 15:00N 48°55' W 123°15'1514.8
2017-Jun-14 14:00N 48°41' W 123°25'0 0.0
2017-Jun-14 13:30N 48°41' W 123°25'0 0.0
2017-Jun-14 12:58N 48°41' W 123°25'0 0.0
2017-Jun-14 12:28N 48°41' W 123°25'0 0.0
2017-Jun-14 11:58N 48°41' W 123°25'0 0.0
2017-Jun-14 11:28N 48°41' W 123°25'0 0.0
2017-Jun-14 10:58N 48°41' W 123°25'0 0.0
2017-Jun-14 10:28N 48°41' W 123°25'0 0.0
2017-Jun-14 09:58N 48°41' W 123°25'0 0.0
2017-Jun-14 09:28N 48°41' W 123°25'0 0.0
2017-Jun-14 08:58N 48°41' W 123°25'0 0.0
2017-Jun-14 08:22N 48°41' W 123°25'0 0.0
2017-Jun-14 07:58N 48°41' W 123°25'0 0.0
2017-Jun-14 07:28N 48°41' W 123°25'0 0.0
2017-Jun-14 06:58N 48°41' W 123°25'0 0.0
2017-Jun-14 06:28N 48°41' W 123°25'0 0.0
2017-Jun-14 05:58N 48°41' W 123°25'0 0.2
2017-Jun-14 05:31N 48°41' W 123°25'815.8
2017-Jun-14 05:01N 48°49' W 123°21'816.8
2017-Jun-14 04:31N 48°56' W 123°14'611.5
2017-Jun-14 04:00N 49°00' W 123°08'2 3.8
2017-Jun-14 03:30N 48°59' W 123°10'1018.9
2017-Jun-14 02:57N 48°52' W 123°21'919.2
2017-Jun-14 02:30N 48°43' W 123°21'3 5.8
2017-Jun-14 02:00N 48°41' W 123°25'1 2.7
2017-Jun-14 01:30N 48°42' W 123°23'917.8
2017-Jun-14 01:00N 48°50' W 123°21'611.5
2017-Jun-14 00:30N 48°55' W 123°16'714.6
2017-Jun-14 00:00N 49°00' W 123°08'0 0.0
2017-Jun-13 23:30N 49°00' W 123°08'816.0
2017-Jun-13 23:00N 48°54' W 123°16'816.9
2017-Jun-13 22:30N 48°46' W 123°21'611.3
2017-Jun-13 22:00N 48°41' W 123°25'0 0.1
2017-Jun-13 21:31N 48°41' W 123°25'815.5
2017-Jun-13 21:00N 48°49' W 123°21'815.9
2017-Jun-13 20:31N 48°56' W 123°15'612.6
2017-Jun-13 20:00N 49°00' W 123°08'0 0.1
2017-Jun-13 19:30N 49°00' W 123°08'917.5
2017-Jun-13 19:00N 48°54' W 123°16'  

Dump ship's entire track history